Terminal Aerodrome Forecast
Issued by NWS Wilmington, OH

Current Version | Previous Version | Text Only | Print | Product List | Glossary Off
Versions: 1 2 3 4 5 6 7 8 9 10 11 12

000
FTUS41 KILN 230520
TAFDAY
TAF
KDAY 230520Z 2306/2406 04008KT P6SM FEW240
     FM231500 06012G17KT P6SM FEW250
     FM240000 04008KT P6SM FEW250=

USA.gov is the U.S. government's official web portal to all federal, state and local government web resources and services.